createdAt,value
2016-12-18T00:00:10.901Z,0
2016-12-18T00:01:10.881Z,0
2016-12-18T00:02:10.867Z,0
2016-12-18T00:03:10.851Z,0
2016-12-18T00:04:10.845Z,0
2016-12-18T00:05:10.820Z,0
2016-12-18T00:06:10.802Z,0
2016-12-18T00:07:10.792Z,0
2016-12-18T00:08:10.770Z,0
2016-12-18T00:09:10.760Z,0
2016-12-18T00:10:10.739Z,0
2016-12-18T00:11:10.721Z,0
2016-12-18T00:12:10.707Z,0
2016-12-18T00:13:10.687Z,0
2016-12-18T00:14:10.676Z,0
2016-12-18T00:15:10.661Z,0
2016-12-18T00:16:10.656Z,0
2016-12-18T00:17:10.629Z,0
2016-12-18T00:18:10.609Z,0
2016-12-18T00:19:10.597Z,0
2016-12-18T00:20:10.590Z,0
2016-12-18T00:21:10.560Z,0
2016-12-18T00:22:10.543Z,0
2016-12-18T00:23:10.528Z,0
2016-12-18T00:24:10.512Z,0
2016-12-18T00:25:10.497Z,0
2016-12-18T00:26:10.481Z,0
2016-12-18T00:27:10.466Z,0
2016-12-18T00:28:10.460Z,0
2016-12-18T00:29:10.430Z,0
2016-12-18T00:30:10.418Z,0
2016-12-18T00:31:10.401Z,0
2016-12-18T00:32:10.383Z,0
2016-12-18T00:33:10.368Z,0
2016-12-18T00:34:10.353Z,0
2016-12-18T00:35:10.651Z,0
2016-12-18T00:36:10.323Z,0
2016-12-18T00:37:10.314Z,0
2016-12-18T00:38:10.293Z,0
2016-12-18T00:39:10.273Z,0
2016-12-18T00:40:10.259Z,0
2016-12-18T00:41:10.242Z,0
2016-12-18T00:42:10.226Z,0
2016-12-18T00:43:10.211Z,0
2016-12-18T00:44:10.191Z,0
2016-12-18T00:45:10.172Z,0
2016-12-18T00:46:10.161Z,0
2016-12-18T00:47:10.144Z,0
2016-12-18T00:48:10.124Z,0
2016-12-18T00:49:10.110Z,0
2016-12-18T00:50:10.412Z,0
2016-12-18T00:51:10.079Z,0
2016-12-18T00:52:10.069Z,0
2016-12-18T00:53:10.046Z,0
2016-12-18T00:54:10.033Z,0
2016-12-18T00:55:10.018Z,0
2016-12-18T00:56:10.001Z,0
2016-12-18T00:57:09.982Z,0
2016-12-18T00:58:09.968Z,0
2016-12-18T00:59:09.952Z,0
2016-12-18T01:00:09.936Z,0
2016-12-18T01:01:09.921Z,0
2016-12-18T01:02:09.903Z,0
2016-12-18T01:03:09.884Z,0
2016-12-18T01:04:09.868Z,0
2016-12-18T01:05:09.857Z,0
2016-12-18T01:06:09.841Z,0
2016-12-18T01:07:09.826Z,0
2016-12-18T01:08:09.808Z,0
2016-12-18T01:09:09.790Z,0
2016-12-18T01:10:09.776Z,0
2016-12-18T01:11:09.756Z,0
2016-12-18T01:12:09.739Z,0
2016-12-18T01:13:09.727Z,0
2016-12-18T01:14:09.711Z,0
2016-12-18T01:15:09.692Z,0
2016-12-18T01:16:09.678Z,0
2016-12-18T01:17:09.659Z,0
2016-12-18T01:18:09.642Z,0
2016-12-18T01:19:09.629Z,0
2016-12-18T01:20:09.611Z,0
2016-12-18T01:21:09.595Z,0
2016-12-18T01:22:09.575Z,0
2016-12-18T01:23:09.567Z,0
2016-12-18T01:24:09.547Z,0
2016-12-18T01:25:09.531Z,0
2016-12-18T01:26:09.511Z,0
2016-12-18T01:27:09.497Z,0
2016-12-18T01:28:09.481Z,0
2016-12-18T01:29:09.472Z,0
2016-12-18T01:30:09.448Z,0
2016-12-18T01:31:09.430Z,0
2016-12-18T01:32:09.414Z,0
2016-12-18T01:33:09.399Z,0
2016-12-18T01:34:09.382Z,0
2016-12-18T01:35:09.369Z,0
2016-12-18T01:36:09.353Z,0
2016-12-18T01:37:09.337Z,0
2016-12-18T01:38:09.319Z,0
2016-12-18T01:39:09.304Z,0
2016-12-18T01:40:09.293Z,0
2016-12-18T01:41:09.269Z,0
2016-12-18T01:42:09.251Z,0
2016-12-18T01:43:09.237Z,0
2016-12-18T01:44:09.221Z,0
2016-12-18T01:45:09.229Z,0
2016-12-18T01:46:09.185Z,0
2016-12-18T01:47:09.170Z,0
2016-12-18T01:48:09.165Z,0
2016-12-18T01:49:09.142Z,0
2016-12-18T01:50:09.123Z,0
2016-12-18T01:51:09.104Z,0
2016-12-18T01:52:09.089Z,0
2016-12-18T01:53:09.071Z,0
2016-12-18T01:54:09.055Z,0
2016-12-18T01:55:09.042Z,0
2016-12-18T01:56:09.023Z,0
2016-12-18T01:57:09.011Z,0
2016-12-18T01:58:08.992Z,0
2016-12-18T01:59:08.981Z,0
2016-12-18T02:00:08.963Z,0
2016-12-18T02:01:08.945Z,0
2016-12-18T02:02:08.927Z,0
2016-12-18T02:03:08.912Z,0
2016-12-18T02:04:08.892Z,0
2016-12-18T02:05:09.337Z,0
2016-12-18T02:06:08.861Z,0
2016-12-18T02:07:08.850Z,0
2016-12-18T02:08:08.831Z,0
2016-12-18T02:09:08.813Z,0
2016-12-18T02:10:08.800Z,0
2016-12-18T02:11:08.785Z,0
2016-12-18T02:12:08.764Z,0
2016-12-18T02:13:08.753Z,0
2016-12-18T02:14:08.738Z,0
2016-12-18T02:15:08.719Z,0
2016-12-18T02:16:08.698Z,0
2016-12-18T02:17:08.683Z,0
2016-12-18T02:18:08.670Z,0
2016-12-18T02:19:08.652Z,0
2016-12-18T02:20:08.948Z,0
2016-12-18T02:21:08.617Z,0
2016-12-18T02:22:08.601Z,0
2016-12-18T02:23:08.585Z,0
2016-12-18T02:24:08.569Z,0
2016-12-18T02:25:08.867Z,0
2016-12-18T02:26:08.537Z,0
2016-12-18T02:27:08.519Z,0
2016-12-18T02:28:08.504Z,0
2016-12-18T02:29:08.486Z,0
2016-12-18T02:30:08.889Z,0
2016-12-18T02:31:08.453Z,0
2016-12-18T02:32:08.448Z,0
2016-12-18T02:33:08.421Z,0
2016-12-18T02:34:08.408Z,0
2016-12-18T02:35:08.391Z,0
2016-12-18T02:36:08.383Z,0
2016-12-18T02:37:08.357Z,0
2016-12-18T02:38:08.653Z,0
2016-12-18T02:39:08.326Z,0
2016-12-18T02:40:08.312Z,0
2016-12-18T02:41:08.290Z,0
2016-12-18T02:42:08.280Z,0
2016-12-18T02:43:08.256Z,0
2016-12-18T02:44:08.239Z,0
2016-12-18T02:45:08.234Z,0
2016-12-18T02:46:08.211Z,0
2016-12-18T02:47:08.226Z,0
2016-12-18T02:48:08.178Z,0
2016-12-18T02:49:08.161Z,0
2016-12-18T02:50:08.150Z,0
2016-12-18T02:51:08.126Z,0
2016-12-18T02:52:08.117Z,0
2016-12-18T02:53:08.093Z,0
2016-12-18T02:54:08.078Z,0
2016-12-18T02:55:08.059Z,0
2016-12-18T02:56:08.050Z,0
2016-12-18T02:57:08.032Z,0
2016-12-18T02:58:08.011Z,0
2016-12-18T02:59:07.999Z,0
2016-12-18T03:00:08.084Z,0
2016-12-18T03:01:07.969Z,0
2016-12-18T03:02:07.959Z,0
2016-12-18T03:03:07.936Z,0
2016-12-18T03:04:07.916Z,0
2016-12-18T03:05:07.897Z,0
2016-12-18T03:06:07.883Z,0
2016-12-18T03:07:07.866Z,0
2016-12-18T03:08:07.848Z,0
2016-12-18T03:09:07.838Z,0
2016-12-18T03:10:07.818Z,0
2016-12-18T03:11:07.802Z,0
2016-12-18T03:12:07.782Z,0
2016-12-18T03:13:07.772Z,0
2016-12-18T03:14:07.751Z,0
2016-12-18T03:15:07.742Z,0
2016-12-18T03:16:07.720Z,0
2016-12-18T03:17:07.708Z,0
2016-12-18T03:18:07.690Z,0
2016-12-18T03:19:07.677Z,0
2016-12-18T03:20:07.661Z,0
2016-12-18T03:21:07.642Z,0
2016-12-18T03:22:07.624Z,0
2016-12-18T03:23:07.609Z,0
2016-12-18T03:24:07.595Z,0
2016-12-18T03:25:07.577Z,0
2016-12-18T03:26:07.563Z,0
2016-12-18T03:27:07.545Z,0
2016-12-18T03:28:07.528Z,0
2016-12-18T03:29:07.512Z,0
2016-12-18T03:30:07.496Z,0
2016-12-18T03:31:07.479Z,0
2016-12-18T03:32:07.461Z,0
2016-12-18T03:33:07.766Z,0
2016-12-18T03:34:07.434Z,0
2016-12-18T03:35:07.416Z,0
2016-12-18T03:36:07.400Z,0
2016-12-18T03:37:07.381Z,0
2016-12-18T03:38:07.368Z,0
2016-12-18T03:39:07.352Z,0
2016-12-18T03:40:07.335Z,0
2016-12-18T03:41:07.319Z,0
2016-12-18T03:42:07.304Z,0
2016-12-18T03:43:07.286Z,0
2016-12-18T03:44:07.276Z,0
2016-12-18T03:45:07.259Z,0
2016-12-18T03:46:07.238Z,0
2016-12-18T03:47:07.221Z,0
2016-12-18T03:48:07.205Z,0
2016-12-18T03:49:07.193Z,0
2016-12-18T03:50:07.176Z,0
2016-12-18T03:51:07.471Z,0
2016-12-18T03:52:07.139Z,0
2016-12-18T03:53:07.121Z,0
2016-12-18T03:54:07.106Z,0
2016-12-18T03:55:07.092Z,0
2016-12-18T03:56:07.074Z,0
2016-12-18T03:57:07.060Z,0
2016-12-18T03:58:07.042Z,0
2016-12-18T03:59:07.030Z,0
2016-12-18T04:00:07.011Z,0
2016-12-18T04:01:06.999Z,0
2016-12-18T04:02:06.978Z,0
2016-12-18T04:03:06.982Z,0
2016-12-18T04:04:06.947Z,0
2016-12-18T04:05:06.927Z,0
2016-12-18T04:06:06.916Z,0
2016-12-18T04:07:06.905Z,0
2016-12-18T04:08:06.883Z,0
2016-12-18T04:09:06.865Z,0
2016-12-18T04:10:06.849Z,0
2016-12-18T04:11:06.833Z,0
2016-12-18T04:12:06.818Z,0
2016-12-18T04:13:06.801Z,0
2016-12-18T04:14:06.806Z,0
2016-12-18T04:15:06.767Z,0
2016-12-18T04:16:06.752Z,0
2016-12-18T04:17:06.739Z,0
2016-12-18T04:18:06.749Z,0
2016-12-18T04:19:06.703Z,0
2016-12-18T04:20:06.685Z,0
2016-12-18T04:21:06.668Z,0
2016-12-18T04:22:06.655Z,0
2016-12-18T04:23:06.897Z,0
2016-12-18T04:24:06.865Z,0
2016-12-18T04:25:06.779Z,0
2016-12-18T04:26:06.650Z,0
2016-12-18T04:27:06.570Z,0
2016-12-18T04:28:06.558Z,0
2016-12-18T04:29:06.544Z,0
2016-12-18T04:30:06.528Z,0
2016-12-18T04:31:06.508Z,0
2016-12-18T04:32:06.491Z,0
2016-12-18T04:33:06.479Z,0
2016-12-18T04:34:06.498Z,0
2016-12-18T04:35:06.441Z,0
2016-12-18T04:36:06.425Z,0
2016-12-18T04:37:06.415Z,0
2016-12-18T04:38:06.403Z,0
2016-12-18T04:39:06.382Z,0
2016-12-18T04:40:06.368Z,0
2016-12-18T04:41:06.342Z,0
2016-12-18T04:42:06.330Z,0
2016-12-18T04:43:06.311Z,0
2016-12-18T04:44:06.605Z,0
2016-12-18T04:45:06.280Z,0
2016-12-18T04:46:06.256Z,0
2016-12-18T04:47:06.251Z,0
2016-12-18T04:48:06.228Z,0
2016-12-18T04:49:38.286Z,0
2016-12-18T04:50:06.200Z,0
2016-12-18T04:51:06.524Z,0
2016-12-18T04:52:06.169Z,0
2016-12-18T04:53:06.149Z,0
2016-12-18T04:54:06.129Z,0
2016-12-18T04:55:06.115Z,0
2016-12-18T04:56:06.147Z,0
2016-12-18T04:57:06.085Z,0
2016-12-18T04:58:06.070Z,0
2016-12-18T04:59:06.047Z,0
2016-12-18T05:00:06.039Z,0
2016-12-18T05:01:06.013Z,0
2016-12-18T05:02:06.002Z,0
2016-12-18T05:03:06.294Z,0
2016-12-18T05:04:05.965Z,0
2016-12-18T05:05:05.953Z,0
2016-12-18T05:06:06.246Z,0
2016-12-18T05:07:05.915Z,0
2016-12-18T05:08:05.903Z,0
2016-12-18T05:09:05.886Z,0
2016-12-18T05:10:05.872Z,0
2016-12-18T05:11:05.882Z,0
2016-12-18T05:12:05.832Z,0
2016-12-18T05:13:05.825Z,0
2016-12-18T05:14:05.804Z,0
2016-12-18T05:15:05.786Z,0
2016-12-18T05:16:05.771Z,0
2016-12-18T05:17:05.763Z,0
2016-12-18T05:18:05.738Z,0
2016-12-18T05:19:05.718Z,0
2016-12-18T05:20:05.705Z,0
2016-12-18T05:21:06.010Z,0
2016-12-18T05:22:05.669Z,0
2016-12-18T05:23:05.653Z,0
2016-12-18T05:24:05.642Z,0
2016-12-18T05:25:05.628Z,0
2016-12-18T05:26:05.609Z,0
2016-12-18T05:27:05.592Z,0
2016-12-18T05:28:05.574Z,0
2016-12-18T05:29:05.554Z,0
2016-12-18T05:30:05.542Z,0
2016-12-18T05:31:05.523Z,0
2016-12-18T05:32:05.505Z,0
2016-12-18T05:33:05.489Z,0
2016-12-18T05:34:05.474Z,0
2016-12-18T05:35:05.459Z,0
2016-12-18T05:36:05.440Z,0
2016-12-18T05:37:05.421Z,0
2016-12-18T05:38:05.409Z,0
2016-12-18T05:39:05.391Z,0
2016-12-18T05:40:05.373Z,0
2016-12-18T05:41:05.358Z,0
2016-12-18T05:42:05.336Z,0
2016-12-18T05:43:05.324Z,0
2016-12-18T05:44:05.309Z,0
2016-12-18T05:45:05.295Z,0
2016-12-18T05:46:05.277Z,0
2016-12-18T05:47:05.258Z,0
2016-12-18T05:48:05.244Z,0
2016-12-18T05:49:05.230Z,0
2016-12-18T05:50:05.212Z,0
2016-12-18T05:51:05.196Z,0
2016-12-18T05:52:05.176Z,0
2016-12-18T05:53:05.163Z,0
2016-12-18T05:54:05.143Z,0
2016-12-18T05:55:05.125Z,0
2016-12-18T05:56:05.112Z,0
2016-12-18T05:57:05.101Z,0
2016-12-18T05:58:05.085Z,0
2016-12-18T05:59:05.060Z,0
2016-12-18T06:00:05.073Z,0
2016-12-18T06:01:05.026Z,0
2016-12-18T06:02:05.011Z,0
2016-12-18T06:03:04.999Z,0
2016-12-18T06:04:04.974Z,0
2016-12-18T06:05:04.958Z,0
2016-12-18T06:06:04.974Z,0
2016-12-18T06:07:04.925Z,0
2016-12-18T06:08:04.915Z,0
2016-12-18T06:09:04.893Z,0
2016-12-18T06:10:05.194Z,0
2016-12-18T06:11:04.861Z,0
2016-12-18T06:12:05.160Z,0
2016-12-18T06:13:04.823Z,0
2016-12-18T06:14:04.813Z,0
2016-12-18T06:15:05.112Z,0
2016-12-18T06:16:04.776Z,0
2016-12-18T06:17:04.757Z,0
2016-12-18T06:18:04.743Z,0
2016-12-18T06:19:04.724Z,0
2016-12-18T06:20:05.028Z,0
2016-12-18T06:21:04.700Z,0
2016-12-18T06:22:04.676Z,0
2016-12-18T06:23:04.659Z,0
2016-12-18T06:24:04.639Z,0
2016-12-18T06:25:04.627Z,0
2016-12-18T06:26:04.606Z,0
2016-12-18T06:27:04.596Z,0
2016-12-18T06:28:04.578Z,0
2016-12-18T06:29:04.560Z,0
2016-12-18T06:30:04.556Z,0
2016-12-18T06:31:04.524Z,0
2016-12-18T06:32:04.507Z,0
2016-12-18T06:33:04.490Z,0
2016-12-18T06:34:04.472Z,0
2016-12-18T06:35:04.459Z,0
2016-12-18T06:36:04.440Z,0
2016-12-18T06:37:04.426Z,0
2016-12-18T06:38:04.408Z,4
2016-12-18T06:39:04.396Z,4
2016-12-18T06:40:04.378Z,0
2016-12-18T06:41:04.357Z,4
2016-12-18T06:42:04.344Z,4
2016-12-18T06:43:04.326Z,0
2016-12-18T06:44:04.315Z,4
2016-12-18T06:45:04.292Z,4
2016-12-18T06:46:04.274Z,4
2016-12-18T06:47:04.260Z,8
2016-12-18T06:48:04.243Z,4
2016-12-18T06:49:04.223Z,8
2016-12-18T06:50:04.210Z,8
2016-12-18T06:51:04.193Z,8
2016-12-18T06:52:04.489Z,12
2016-12-18T06:53:04.161Z,8
2016-12-18T06:54:04.143Z,12
2016-12-18T06:55:04.128Z,12
2016-12-18T06:56:04.107Z,16
2016-12-18T06:57:04.092Z,16
2016-12-18T06:58:04.076Z,20
2016-12-18T06:59:04.061Z,24
2016-12-18T07:00:04.047Z,28
2016-12-18T07:01:04.036Z,28
2016-12-18T07:02:04.012Z,32
2016-12-18T07:03:03.993Z,36
2016-12-18T07:04:03.986Z,32
2016-12-18T07:05:03.956Z,40
2016-12-18T07:06:03.943Z,36
2016-12-18T07:07:03.927Z,44
2016-12-18T07:08:03.935Z,44
2016-12-18T07:09:03.893Z,52
2016-12-18T07:10:03.881Z,52
2016-12-18T07:11:03.859Z,56
2016-12-18T07:12:03.844Z,60
2016-12-18T07:13:03.828Z,64
2016-12-18T07:14:03.813Z,68
2016-12-18T07:15:03.794Z,72
2016-12-18T07:16:03.778Z,68
2016-12-18T07:17:03.767Z,72
2016-12-18T07:18:03.746Z,68
2016-12-18T07:19:03.727Z,72
2016-12-18T07:20:03.719Z,68
2016-12-18T07:21:03.724Z,72
2016-12-18T07:22:03.677Z,72
2016-12-18T07:23:03.663Z,72
2016-12-18T07:24:03.646Z,72
2016-12-18T07:25:03.634Z,72
2016-12-18T07:26:03.616Z,76
2016-12-18T07:27:03.598Z,80
2016-12-18T07:28:03.581Z,84
2016-12-18T07:29:03.568Z,92
2016-12-18T07:30:03.554Z,100
2016-12-18T07:31:03.846Z,108
2016-12-18T07:32:03.518Z,116
2016-12-18T07:33:03.499Z,120
2016-12-18T07:34:03.481Z,128
2016-12-18T07:35:03.464Z,140
2016-12-18T07:36:03.445Z,148
2016-12-18T07:37:03.437Z,160
2016-12-18T07:38:03.417Z,164
2016-12-18T07:39:03.400Z,160
2016-12-18T07:40:03.380Z,160
2016-12-18T07:41:03.364Z,160
2016-12-18T07:42:03.349Z,172
2016-12-18T07:43:03.330Z,192
2016-12-18T07:44:03.316Z,200
2016-12-18T07:45:03.299Z,204
2016-12-18T07:46:03.281Z,216
2016-12-18T07:47:03.302Z,220
2016-12-18T07:48:03.251Z,224
2016-12-18T07:49:03.232Z,216
2016-12-18T07:50:03.220Z,228
2016-12-18T07:51:03.202Z,248
2016-12-18T07:52:03.181Z,272
2016-12-18T07:53:03.167Z,304
2016-12-18T07:54:03.147Z,332
2016-12-18T07:55:03.131Z,348
2016-12-18T07:56:03.114Z,392
2016-12-18T07:57:03.100Z,440
2016-12-18T07:58:03.088Z,504
2016-12-18T07:59:03.074Z,620
2016-12-18T08:00:03.057Z,744
2016-12-18T08:01:03.039Z,872
2016-12-18T08:02:03.017Z,944
2016-12-18T08:03:02.999Z,912
2016-12-18T08:04:02.982Z,816
2016-12-18T08:05:02.967Z,672
2016-12-18T08:06:03.266Z,512
2016-12-18T08:07:02.932Z,412
2016-12-18T08:08:02.919Z,348
2016-12-18T08:09:02.900Z,328
2016-12-18T08:10:03.199Z,340
2016-12-18T08:11:02.869Z,348
2016-12-18T08:12:02.849Z,364
2016-12-18T08:13:02.834Z,368
2016-12-18T08:14:02.848Z,372
2016-12-18T08:15:02.827Z,344
2016-12-18T08:16:02.784Z,336
2016-12-18T08:17:03.084Z,348
2016-12-18T08:18:02.754Z,420
2016-12-18T08:19:02.738Z,524
2016-12-18T08:20:02.720Z,672
2016-12-18T08:21:02.702Z,832
2016-12-18T08:22:03.001Z,916
2016-12-18T08:23:02.670Z,904
2016-12-18T08:24:02.653Z,868
2016-12-18T08:25:02.637Z,784
2016-12-18T08:26:02.623Z,740
2016-12-18T08:27:02.600Z,744
2016-12-18T08:28:02.592Z,788
2016-12-18T08:29:02.571Z,792
2016-12-18T08:30:02.560Z,752
2016-12-18T08:31:02.542Z,748
2016-12-18T08:32:02.524Z,740
2016-12-18T08:33:02.508Z,752
2016-12-18T08:34:02.493Z,728
2016-12-18T08:35:02.475Z,668
2016-12-18T08:36:02.461Z,660
2016-12-18T08:37:02.447Z,644
2016-12-18T08:38:02.430Z,644
2016-12-18T08:39:02.405Z,632
2016-12-18T08:40:02.398Z,528
2016-12-18T08:41:02.376Z,472
2016-12-18T08:42:02.360Z,452
2016-12-18T08:43:02.343Z,480
2016-12-18T08:44:02.329Z,508
2016-12-18T08:45:02.313Z,556
2016-12-18T08:46:02.302Z,612
2016-12-18T08:47:02.281Z,716
2016-12-18T08:48:02.264Z,848
2016-12-18T08:49:02.248Z,860
2016-12-18T08:50:02.239Z,808
2016-12-18T08:51:02.244Z,668
2016-12-18T08:52:02.198Z,588
2016-12-18T08:53:02.181Z,556
2016-12-18T08:54:02.164Z,540
2016-12-18T08:55:02.153Z,640
2016-12-18T08:56:02.131Z,748
2016-12-18T08:57:02.127Z,712
2016-12-18T08:58:02.103Z,724
2016-12-18T08:59:02.089Z,664
2016-12-18T09:00:02.074Z,644
2016-12-18T09:01:02.052Z,624
2016-12-18T09:02:02.059Z,604
2016-12-18T09:03:02.018Z,652
2016-12-18T09:04:02.320Z,716
2016-12-18T09:05:01.991Z,756
2016-12-18T09:06:01.971Z,860
2016-12-18T09:07:01.958Z,1004
2016-12-18T09:08:01.938Z,1140
2016-12-18T09:09:02.236Z,1196
2016-12-18T09:10:01.905Z,1156
2016-12-18T09:11:02.205Z,1064
2016-12-18T09:12:01.877Z,1056
2016-12-18T09:13:01.868Z,1140
2016-12-18T09:14:02.155Z,1396
2016-12-18T09:15:01.826Z,1796
2016-12-18T09:16:01.809Z,2560
2016-12-18T09:17:01.792Z,3128
2016-12-18T09:18:01.775Z,3300
2016-12-18T09:19:01.764Z,3552
2016-12-18T09:20:01.751Z,3616
2016-12-18T09:21:01.726Z,3664
2016-12-18T09:22:01.711Z,3820
2016-12-18T09:23:01.729Z,3852
2016-12-18T09:24:01.682Z,3800
2016-12-18T09:25:01.720Z,3292
2016-12-18T09:26:01.684Z,2824
2016-12-18T09:27:01.668Z,2588
2016-12-18T09:28:01.829Z,2496
2016-12-18T09:29:01.701Z,2348
2016-12-18T09:30:01.584Z,2124
2016-12-18T09:31:01.673Z,2216
2016-12-18T09:32:01.554Z,2252
2016-12-18T09:33:01.884Z,2044
2016-12-18T09:34:01.589Z,1896
2016-12-18T09:35:01.639Z,1632
2016-12-18T09:36:01.581Z,1312
2016-12-18T09:37:01.584Z,1204
2016-12-18T09:38:01.528Z,1080
2016-12-18T09:39:01.440Z,968
2016-12-18T09:40:01.438Z,872
2016-12-18T09:41:01.437Z,804
2016-12-18T09:42:01.648Z,852
2016-12-18T09:43:02.228Z,888
2016-12-18T09:44:01.587Z,832
2016-12-18T09:45:01.347Z,676
2016-12-18T09:46:01.332Z,592
2016-12-18T09:47:01.318Z,588
2016-12-18T09:48:01.377Z,644
2016-12-18T09:49:01.696Z,736
2016-12-18T09:50:01.279Z,924
2016-12-18T09:51:01.614Z,1040
2016-12-18T09:52:01.501Z,1100
2016-12-18T09:53:01.533Z,1260
2016-12-18T09:54:01.328Z,1472
2016-12-18T09:55:01.425Z,1436
2016-12-18T09:56:01.175Z,1184
2016-12-18T09:57:01.222Z,952
2016-12-18T09:58:01.196Z,904
2016-12-18T09:59:01.352Z,956
2016-12-18T10:00:01.287Z,960
2016-12-18T10:01:01.426Z,1080
2016-12-18T10:02:01.073Z,1116
2016-12-18T10:03:01.414Z,1168
2016-12-18T10:04:01.169Z,1224
2016-12-18T10:05:01.316Z,1344
2016-12-18T10:06:01.177Z,1372
2016-12-18T10:07:01.619Z,1344
2016-12-18T10:08:01.004Z,1312
2016-12-18T10:09:01.080Z,1356
2016-12-18T10:10:00.975Z,1336
2016-12-18T10:11:00.932Z,1264
2016-12-18T10:12:00.913Z,1112
2016-12-18T10:13:00.897Z,1168
2016-12-18T10:14:00.878Z,1272
2016-12-18T10:15:00.864Z,1316
2016-12-18T10:16:00.869Z,1248
2016-12-18T10:17:00.831Z,1128
2016-12-18T10:18:00.817Z,976
2016-12-18T10:19:00.848Z,1080
2016-12-18T10:20:00.781Z,1176
2016-12-18T10:21:00.767Z,1224
2016-12-18T10:22:00.835Z,1348
2016-12-18T10:23:00.972Z,1356
2016-12-18T10:24:01.125Z,1624
2016-12-18T10:25:00.701Z,1792
2016-12-18T10:26:00.687Z,1980
2016-12-18T10:27:00.667Z,2448
2016-12-18T10:28:00.693Z,2620
2016-12-18T10:29:00.746Z,2560
2016-12-18T10:30:00.621Z,2312
2016-12-18T10:31:00.910Z,2164
2016-12-18T10:32:00.706Z,2000
2016-12-18T10:33:00.757Z,1804
2016-12-18T10:34:00.918Z,1952
2016-12-18T10:35:01.019Z,1840
2016-12-18T10:36:00.760Z,1744
2016-12-18T10:37:00.689Z,1784
2016-12-18T10:38:00.609Z,1632
2016-12-18T10:39:00.475Z,1532
2016-12-18T10:40:00.490Z,1596
2016-12-18T10:41:00.447Z,1572
2016-12-18T10:42:00.429Z,1552
2016-12-18T10:43:00.409Z,1640
2016-12-18T10:44:00.393Z,1452
2016-12-18T10:45:00.384Z,1332
2016-12-18T10:46:00.359Z,1372
2016-12-18T10:47:00.349Z,1240
2016-12-18T10:48:00.364Z,1148
2016-12-18T10:49:00.483Z,1128
2016-12-18T10:50:00.332Z,1152
2016-12-18T10:51:00.455Z,1188
2016-12-18T10:52:00.309Z,1192
2016-12-18T10:53:00.343Z,1264
2016-12-18T10:54:00.264Z,1340
2016-12-18T10:55:00.249Z,1372
2016-12-18T10:56:00.287Z,1476
2016-12-18T10:57:00.281Z,1948
2016-12-18T10:58:00.606Z,2024
2016-12-18T10:59:00.231Z,2004
2016-12-18T11:00:00.232Z,1956
2016-12-18T11:01:00.247Z,2180
2016-12-18T11:02:00.208Z,2436
2016-12-18T11:03:00.201Z,2284
2016-12-18T11:04:00.207Z,2352
2016-12-18T11:05:00.188Z,2240
2016-12-18T11:06:00.264Z,2224
2016-12-18T11:07:00.142Z,2296
2016-12-18T11:08:00.154Z,2288
2016-12-18T11:09:00.115Z,2396
2016-12-18T11:10:00.060Z,2656
2016-12-18T11:11:00.100Z,2760
2016-12-18T11:12:00.036Z,2852
2016-12-18T11:13:00.010Z,3288
2016-12-18T11:13:59.935Z,3492
2016-12-18T11:14:59.986Z,3600
2016-12-18T11:15:59.877Z,3704
2016-12-18T11:16:59.881Z,3700
2016-12-18T11:17:59.841Z,4048
2016-12-18T11:18:59.859Z,4256
2016-12-18T11:19:59.846Z,4568
2016-12-18T11:20:59.821Z,5112
2016-12-18T11:21:59.784Z,5252
2016-12-18T11:22:59.790Z,4824
2016-12-18T11:23:59.747Z,4220
2016-12-18T11:24:59.764Z,4632
2016-12-18T11:25:59.747Z,4176
2016-12-18T11:26:59.736Z,3680
2016-12-18T11:27:59.719Z,3140
2016-12-18T11:28:59.698Z,2748
2016-12-18T11:29:59.738Z,2408
2016-12-18T11:30:59.668Z,2276
2016-12-18T11:31:59.716Z,2072
2016-12-18T11:32:59.688Z,2040
2016-12-18T11:33:59.680Z,1988
2016-12-18T11:34:59.660Z,2032
2016-12-18T11:35:59.641Z,2208
2016-12-18T11:36:59.694Z,3088
2016-12-18T11:37:59.642Z,3928
2016-12-18T11:38:59.606Z,3180
2016-12-18T11:39:59.563Z,3072
2016-12-18T11:40:59.577Z,3244
2016-12-18T11:41:59.598Z,3472
2016-12-18T11:42:59.546Z,3408
2016-12-18T11:43:59.501Z,2908
2016-12-18T11:44:59.505Z,2336
2016-12-18T11:45:59.461Z,2016
2016-12-18T11:46:59.448Z,1784
2016-12-18T11:47:59.437Z,1804
2016-12-18T11:48:59.406Z,2452
2016-12-18T11:49:59.437Z,3088
2016-12-18T11:50:59.454Z,3936
2016-12-18T11:51:59.452Z,5220
2016-12-18T11:52:59.426Z,5120
2016-12-18T11:53:59.396Z,4116
2016-12-18T11:54:59.395Z,3784
2016-12-18T11:55:59.361Z,3656
2016-12-18T11:56:59.432Z,3076
2016-12-18T11:57:59.340Z,3184
2016-12-18T11:58:59.228Z,3048
2016-12-18T11:59:59.207Z,2680
2016-12-18T12:00:59.200Z,2852
2016-12-18T12:01:59.236Z,2664
2016-12-18T12:02:59.171Z,2356
2016-12-18T12:03:59.140Z,1996
2016-12-18T12:04:59.195Z,1840
2016-12-18T12:05:59.116Z,1660
2016-12-18T12:06:59.156Z,1520
2016-12-18T12:07:59.103Z,1876
2016-12-18T12:08:59.101Z,2128
2016-12-18T12:09:59.032Z,2292
2016-12-18T12:10:59.112Z,2500
2016-12-18T12:11:59.057Z,2032
2016-12-18T12:12:59.083Z,2192
2016-12-18T12:13:59.028Z,2360
2016-12-18T12:14:59.070Z,2412
2016-12-18T12:15:59.029Z,2272
2016-12-18T12:16:59.020Z,2196
2016-12-18T12:17:58.970Z,2440
2016-12-18T12:18:58.992Z,2320
2016-12-18T12:19:58.937Z,2308
2016-12-18T12:20:58.969Z,2932
2016-12-18T12:21:58.911Z,3156
2016-12-18T12:22:58.977Z,3160
2016-12-18T12:23:58.879Z,2932
2016-12-18T12:24:59.245Z,2856
2016-12-18T12:25:58.854Z,2564
2016-12-18T12:26:58.863Z,2728
2016-12-18T12:27:58.904Z,2356
2016-12-18T12:28:58.835Z,1836
2016-12-18T12:29:58.779Z,1664
2016-12-18T12:30:58.767Z,1988
2016-12-18T12:31:58.754Z,1876
2016-12-18T12:32:58.787Z,2336
2016-12-18T12:33:58.727Z,2432
2016-12-18T12:34:58.704Z,1996
2016-12-18T12:35:58.717Z,2136
2016-12-18T12:36:58.738Z,2104
2016-12-18T12:37:58.744Z,2520
2016-12-18T12:38:58.707Z,2364
2016-12-18T12:39:58.696Z,2388
2016-12-18T12:40:58.673Z,2716
2016-12-18T12:41:58.661Z,3156
2016-12-18T12:42:58.694Z,3364
2016-12-18T12:43:58.605Z,3724
2016-12-18T12:44:58.608Z,3420
2016-12-18T12:45:58.552Z,3520
2016-12-18T12:46:58.501Z,4060
2016-12-18T12:47:58.493Z,3456
2016-12-18T12:48:58.459Z,3572
2016-12-18T12:49:58.479Z,3696
2016-12-18T12:50:58.609Z,3520
2016-12-18T12:51:58.442Z,3240
2016-12-18T12:52:58.712Z,3228
2016-12-18T12:53:58.449Z,3192
2016-12-18T12:54:58.435Z,2984
2016-12-18T12:55:58.429Z,3140
2016-12-18T12:56:58.404Z,3244
2016-12-18T12:57:58.432Z,2976
2016-12-18T12:58:58.382Z,2380
2016-12-18T12:59:58.404Z,2224
2016-12-18T13:00:58.332Z,2200
2016-12-18T13:01:58.313Z,2508
2016-12-18T13:02:58.357Z,2500
2016-12-18T13:03:58.591Z,2440
2016-12-18T13:04:58.305Z,2212
2016-12-18T13:05:58.287Z,1832
2016-12-18T13:06:58.257Z,1880
2016-12-18T13:07:58.295Z,1796
2016-12-18T13:08:58.223Z,1968
2016-12-18T13:09:58.190Z,2000
2016-12-18T13:10:58.196Z,1984
2016-12-18T13:11:58.146Z,1612
2016-12-18T13:12:58.256Z,1660
2016-12-18T13:13:58.126Z,1744
2016-12-18T13:14:58.106Z,1872
2016-12-18T13:15:58.087Z,1756
2016-12-18T13:16:58.116Z,1672
2016-12-18T13:17:58.107Z,1572
2016-12-18T13:18:58.039Z,2168
2016-12-18T13:19:58.086Z,1912
2016-12-18T13:20:58.034Z,1736
2016-12-18T13:21:58.066Z,1412
2016-12-18T13:22:58.046Z,1168
2016-12-18T13:23:57.984Z,1140
2016-12-18T13:24:57.974Z,1112
2016-12-18T13:25:57.935Z,1132
2016-12-18T13:26:57.919Z,1020
2016-12-18T13:27:57.943Z,1076
2016-12-18T13:28:58.272Z,1304
2016-12-18T13:29:57.861Z,1284
2016-12-18T13:30:58.205Z,1144
2016-12-18T13:31:57.840Z,1192
2016-12-18T13:32:57.875Z,1280
2016-12-18T13:33:57.826Z,2020
2016-12-18T13:34:57.787Z,2484
2016-12-18T13:35:57.842Z,2376
2016-12-18T13:36:57.833Z,2084
2016-12-18T13:37:57.858Z,1972
2016-12-18T13:38:57.786Z,1564
2016-12-18T13:39:57.765Z,1380
2016-12-18T13:40:57.763Z,1432
2016-12-18T13:41:57.748Z,1412
2016-12-18T13:42:57.776Z,1320
2016-12-18T13:43:57.713Z,1280
2016-12-18T13:44:57.708Z,1140
2016-12-18T13:45:57.692Z,1120
2016-12-18T13:46:57.677Z,1180
2016-12-18T13:47:57.713Z,1144
2016-12-18T13:48:57.638Z,1120
2016-12-18T13:49:57.629Z,1164
2016-12-18T13:50:57.620Z,1092
2016-12-18T13:51:57.596Z,1076
2016-12-18T13:52:57.687Z,1040
2016-12-18T13:53:57.912Z,1036
2016-12-18T13:54:57.556Z,960
2016-12-18T13:55:57.539Z,856
2016-12-18T13:56:57.535Z,816
2016-12-18T13:57:57.520Z,856
2016-12-18T13:58:57.491Z,892
2016-12-18T13:59:57.565Z,844
2016-12-18T14:00:57.464Z,844
2016-12-18T14:01:57.446Z,960
2016-12-18T14:02:57.491Z,884
2016-12-18T14:03:57.421Z,888
2016-12-18T14:04:57.403Z,860
2016-12-18T14:05:57.389Z,816